createdAt,value
2022-11-29T00:00:03.137Z,97.93
2022-11-29T00:05:27.164Z,98.28
2022-11-29T00:10:29.968Z,98.00
2022-11-29T00:15:36.936Z,96.45
2022-11-29T00:20:40.045Z,94.93
2022-11-29T00:25:42.878Z,94.58
2022-11-29T00:30:45.768Z,94.69
2022-11-29T00:35:48.689Z,94.63
2022-11-29T00:40:52.647Z,94.48
2022-11-29T00:45:55.427Z,94.83
2022-11-29T00:50:58.483Z,94.81
2022-11-29T00:56:02.375Z,94.54
2022-11-29T01:01:06.084Z,93.91
2022-11-29T01:06:12.441Z,93.13
2022-11-29T01:11:27.280Z,92.59
2022-11-29T01:16:31.357Z,91.82
2022-11-29T01:21:34.383Z,91.39
2022-11-29T01:26:37.127Z,92.33
2022-11-29T01:31:39.985Z,93.00
2022-11-29T01:36:42.778Z,93.70
2022-11-29T01:41:45.623Z,93.67
2022-11-29T01:46:49.241Z,92.81
2022-11-29T01:52:02.653Z,92.55
2022-11-29T01:57:08.640Z,92.47
2022-11-29T02:02:35.886Z,92.76
2022-11-29T02:07:39.325Z,92.99
2022-11-29T02:13:13.770Z,93.00
2022-11-29T02:18:37.258Z,93.24
2022-11-29T02:23:42.808Z,93.50
2022-11-29T02:29:15.328Z,93.44
2022-11-29T02:34:44.709Z,93.56
2022-11-29T02:40:16.123Z,93.59
2022-11-29T02:45:38.688Z,93.82
2022-11-29T02:50:50.612Z,93.86
2022-11-29T02:56:07.226Z,93.98
2022-11-29T03:01:25.261Z,94.25
2022-11-29T03:06:43.303Z,94.25
2022-11-29T03:12:01.839Z,94.51
2022-11-29T03:17:30.836Z,94.96
2022-11-29T03:22:52.579Z,95.06
2022-11-29T03:28:14.936Z,94.84
2022-11-29T03:33:39.349Z,94.90
2022-11-29T03:38:46.556Z,94.82
2022-11-29T03:43:56.729Z,95.03
2022-11-29T03:49:25.325Z,94.98
2022-11-29T03:54:55.993Z,94.96
2022-11-29T04:00:07.500Z,95.12
2022-11-29T04:05:36.509Z,94.96
2022-11-29T04:10:58.302Z,94.97
2022-11-29T04:16:34.747Z,95.22
2022-11-29T04:21:58.240Z,95.21
2022-11-29T04:27:29.324Z,95.40
2022-11-29T04:32:44.415Z,95.46
2022-11-29T04:38:19.288Z,95.57
2022-11-29T04:43:40.560Z,95.95
2022-11-29T04:49:07.342Z,96.27
2022-11-29T04:54:31.460Z,96.54
2022-11-29T04:59:47.686Z,96.78
2022-11-29T05:05:20.015Z,97.11
2022-11-29T05:10:35.550Z,97.30
2022-11-29T05:16:03.258Z,97.44
2022-11-29T05:21:43.316Z,97.46
2022-11-29T05:26:52.958Z,97.71
2022-11-29T05:32:14.266Z,97.77
2022-11-29T05:37:27.293Z,97.64
2022-11-29T05:42:50.947Z,97.64
2022-11-29T05:48:24.473Z,97.66
2022-11-29T05:53:27.477Z,97.48
2022-11-29T05:59:00.609Z,97.54
2022-11-29T06:04:16.320Z,97.19
2022-11-29T06:09:34.251Z,96.89
2022-11-29T06:14:46.178Z,96.83
2022-11-29T06:20:04.351Z,96.60
2022-11-29T06:25:07.126Z,96.30
2022-11-29T06:30:21.281Z,96.11
2022-11-29T06:35:48.397Z,95.99
2022-11-29T06:40:53.999Z,95.46
2022-11-29T06:46:10.115Z,95.43
2022-11-29T06:51:39.887Z,95.61
2022-11-29T06:56:58.375Z,95.10
2022-11-29T07:02:17.377Z,94.54
2022-11-29T07:07:22.966Z,94.31
2022-11-29T07:12:26.896Z,94.05
2022-11-29T07:17:32.401Z,94.02
2022-11-29T07:22:55.565Z,93.75
2022-11-29T07:28:29.226Z,93.64
2022-11-29T07:33:48.387Z,92.69
2022-11-29T07:38:51.089Z,92.66
2022-11-29T07:44:03.315Z,92.51
2022-11-29T07:49:09.620Z,92.17
2022-11-29T07:54:17.621Z,92.18
2022-11-29T07:59:20.655Z,92.12
2022-11-29T08:04:23.933Z,92.07
2022-11-29T08:09:26.756Z,92.05
2022-11-29T08:14:33.209Z,91.60
2022-11-29T08:19:35.953Z,91.27
2022-11-29T08:24:39.031Z,91.26
2022-11-29T08:29:41.855Z,91.01
2022-11-29T08:34:45.716Z,89.89
2022-11-29T08:39:48.796Z,89.91
2022-11-29T08:44:51.587Z,90.14
2022-11-29T08:50:03.530Z,90.51
2022-11-29T08:55:07.278Z,89.93
2022-11-29T09:00:11.357Z,90.05
2022-11-29T09:05:15.316Z,89.96
2022-11-29T09:10:18.281Z,89.79
2022-11-29T09:15:21.083Z,90.01
2022-11-29T09:20:23.984Z,90.47
2022-11-29T09:25:27.199Z,90.37
2022-11-29T09:30:31.716Z,90.01
2022-11-29T09:35:34.958Z,89.90
2022-11-29T09:40:46.468Z,89.61
2022-11-29T09:45:57.206Z,89.53
2022-11-29T09:51:26.054Z,89.62
2022-11-29T09:56:41.459Z,90.10
2022-11-29T10:02:04.487Z,89.93
2022-11-29T10:07:22.357Z,89.95
2022-11-29T10:12:52.790Z,89.98
2022-11-29T10:18:03.439Z,89.82
2022-11-29T10:23:17.561Z,89.51
2022-11-29T10:28:27.250Z,89.40
2022-11-29T10:33:39.164Z,89.33
2022-11-29T10:38:46.169Z,89.21
2022-11-29T10:43:51.757Z,89.09
2022-11-29T10:48:55.073Z,88.66
2022-11-29T10:54:15.062Z,88.84
2022-11-29T10:59:23.685Z,88.43
2022-11-29T11:04:35.707Z,88.19
2022-11-29T11:09:47.233Z,88.53
2022-11-29T11:14:52.062Z,88.55
2022-11-29T11:20:21.359Z,88.47
2022-11-29T11:25:26.918Z,88.74
2022-11-29T11:30:29.805Z,88.73
2022-11-29T11:35:32.624Z,88.56
2022-11-29T11:40:35.382Z,88.23
2022-11-29T11:45:38.896Z,88.43
2022-11-29T11:50:52.157Z,88.87
2022-11-29T11:55:57.897Z,88.68
2022-11-29T12:01:23.330Z,88.70
2022-11-29T12:06:52.150Z,88.69
2022-11-29T12:12:16.761Z,88.74
2022-11-29T12:17:23.383Z,89.02
2022-11-29T12:22:33.028Z,88.61
2022-11-29T12:27:35.765Z,88.41
2022-11-29T12:33:06.475Z,88.99
2022-11-29T12:38:46.890Z,89.26
2022-11-29T12:44:04.486Z,89.26
2022-11-29T12:49:43.572Z,89.24
2022-11-29T12:54:46.558Z,89.35
2022-11-29T13:00:08.510Z,89.43
2022-11-29T13:05:11.212Z,89.99
2022-11-29T13:10:52.533Z,90.18
2022-11-29T13:16:08.512Z,90.04
2022-11-29T13:21:20.338Z,90.14
2022-11-29T13:26:26.323Z,90.33
2022-11-29T13:31:30.168Z,90.70
2022-11-29T13:36:57.621Z,91.02
2022-11-29T13:42:22.033Z,91.03
2022-11-29T13:47:25.038Z,91.19
2022-11-29T13:52:27.734Z,91.26
2022-11-29T13:58:14.954Z,91.30
2022-11-29T14:03:24.186Z,91.74
2022-11-29T14:08:42.217Z,91.97
2022-11-29T14:13:59.535Z,92.42
2022-11-29T14:19:08.326Z,92.50
2022-11-29T14:24:35.778Z,92.61
2022-11-29T14:29:54.189Z,93.12
2022-11-29T14:35:12.429Z,93.24
2022-11-29T14:40:33.513Z,93.01
2022-11-29T14:45:36.840Z,92.96
2022-11-29T14:50:40.736Z,93.16
2022-11-29T14:55:43.665Z,93.27
2022-11-29T15:00:49.228Z,93.53
2022-11-29T15:06:00.106Z,93.46
2022-11-29T15:11:11.633Z,93.66
2022-11-29T15:16:48.362Z,93.65
2022-11-29T15:22:04.024Z,93.62
2022-11-29T15:27:07.307Z,93.97
2022-11-29T15:32:13.717Z,94.00
2022-11-29T15:37:39.574Z,94.36
2022-11-29T15:42:47.288Z,94.34
2022-11-29T15:47:50.040Z,94.23
2022-11-29T15:52:57.705Z,94.40
2022-11-29T15:58:08.475Z,94.05
2022-11-29T16:03:21.527Z,93.97
2022-11-29T16:08:29.145Z,93.55
2022-11-29T16:13:33.919Z,93.25
2022-11-29T16:18:40.891Z,93.30
2022-11-29T16:23:44.763Z,93.58
2022-11-29T16:28:51.461Z,93.45
2022-11-29T16:33:54.646Z,93.22
2022-11-29T16:39:06.117Z,93.32
2022-11-29T16:44:50.100Z,93.32
2022-11-29T16:50:02.343Z,93.43
2022-11-29T16:55:10.047Z,92.90
2022-11-29T17:00:45.216Z,92.48
2022-11-29T17:05:49.262Z,92.44
2022-11-29T17:10:52.032Z,92.22
2022-11-29T17:15:54.757Z,92.20
2022-11-29T17:20:57.939Z,92.25
2022-11-29T17:26:02.673Z,91.72
2022-11-29T17:31:10.709Z,91.54
2022-11-29T17:36:16.731Z,91.35
2022-11-29T17:41:22.958Z,91.47
2022-11-29T17:46:31.937Z,91.42
2022-11-29T17:51:51.627Z,91.41
2022-11-29T17:56:55.224Z,90.69
2022-11-29T18:01:58.037Z,90.52
2022-11-29T18:07:01.655Z,90.51
2022-11-29T18:12:04.460Z,90.37
2022-11-29T18:17:07.946Z,90.70
2022-11-29T18:22:10.881Z,90.82
2022-11-29T18:27:13.686Z,90.92
2022-11-29T18:32:16.437Z,90.69
2022-11-29T18:37:38.984Z,90.47
2022-11-29T18:42:41.868Z,90.68
2022-11-29T18:47:45.941Z,90.36
2022-11-29T18:52:48.733Z,90.12
2022-11-29T18:57:53.948Z,90.30
2022-11-29T19:02:56.773Z,90.21
2022-11-29T19:08:00.343Z,90.21
2022-11-29T19:13:03.182Z,90.17
2022-11-29T19:18:06.056Z,90.05
2022-11-29T19:23:08.872Z,89.86
2022-11-29T19:28:14.208Z,89.86
2022-11-29T19:33:17.273Z,89.95
2022-11-29T19:38:20.097Z,89.94
2022-11-29T19:43:22.948Z,89.92
2022-11-29T19:48:25.748Z,89.51
2022-11-29T19:53:29.560Z,89.31
2022-11-29T19:58:32.925Z,89.44
2022-11-29T20:03:35.895Z,89.39
2022-11-29T20:08:38.723Z,89.66
2022-11-29T20:13:43.453Z,89.90
2022-11-29T20:18:51.114Z,89.89
2022-11-29T20:24:06.592Z,89.85
2022-11-29T20:29:10.329Z,89.99
2022-11-29T20:34:15.044Z,89.78
2022-11-29T20:39:28.789Z,89.57
2022-11-29T20:44:40.353Z,89.61
2022-11-29T20:49:43.482Z,89.51
2022-11-29T20:54:47.221Z,89.44
2022-11-29T20:59:50.029Z,89.37
2022-11-29T21:04:52.829Z,89.48
2022-11-29T21:10:00.941Z,89.44
2022-11-29T21:15:04.830Z,89.51
2022-11-29T21:20:09.341Z,89.59
2022-11-29T21:25:21.162Z,89.67
2022-11-29T21:30:25.080Z,89.66
2022-11-29T21:35:27.870Z,89.72
2022-11-29T21:40:30.670Z,89.98
2022-11-29T21:45:33.432Z,90.61
2022-11-29T21:50:36.272Z,90.94
2022-11-29T21:55:39.073Z,91.07
2022-11-29T22:00:41.977Z,91.04
2022-11-29T22:05:44.707Z,91.14
2022-11-29T22:10:47.979Z,91.11
2022-11-29T22:15:50.825Z,91.21
2022-11-29T22:20:54.106Z,91.22
2022-11-29T22:26:01.916Z,91.14
2022-11-29T22:31:07.084Z,91.28
2022-11-29T22:36:12.899Z,91.31
2022-11-29T22:41:16.646Z,91.38
2022-11-29T22:46:23.021Z,91.26
2022-11-29T22:51:31.586Z,91.00
2022-11-29T22:56:40.572Z,91.15
2022-11-29T23:01:43.589Z,91.55
2022-11-29T23:06:46.971Z,92.09
2022-11-29T23:11:56.250Z,92.15
2022-11-29T23:16:59.257Z,92.21
2022-11-29T23:22:02.537Z,92.57
2022-11-29T23:27:05.456Z,92.53
2022-11-29T23:32:08.307Z,92.57
2022-11-29T23:37:11.049Z,92.67
2022-11-29T23:42:13.758Z,92.86
2022-11-29T23:47:16.587Z,92.85
2022-11-29T23:52:19.337Z,92.97
2022-11-29T23:57:22.157Z,92.76
